sensor_id;sensor_type;location;lat;lon;timestamp;temperature;humidity
25668;DHT22;18003;-33.830;151.202;2023-02-28T00:00:45;23.50;99.90
25668;DHT22;18003;-33.830;151.202;2023-02-28T00:03:15;23.50;99.90
25668;DHT22;18003;-33.830;151.202;2023-02-28T00:05:45;23.40;99.90
25668;DHT22;18003;-33.830;151.202;2023-02-28T00:08:15;23.40;99.90
25668;DHT22;18003;-33.830;151.202;2023-02-28T00:10:45;23.50;99.90
25668;DHT22;18003;-33.830;151.202;2023-02-28T00:13:14;23.50;99.90
25668;DHT22;18003;-33.830;151.202;2023-02-28T00:15:45;23.50;99.90
25668;DHT22;18003;-33.830;151.202;2023-02-28T00:18:14;23.50;99.90
25668;DHT22;18003;-33.830;151.202;2023-02-28T00:20:44;23.50;99.90
25668;DHT22;18003;-33.830;151.202;2023-02-28T00:23:14;23.50;99.90
25668;DHT22;18003;-33.830;151.202;2023-02-28T00:25:44;23.50;99.90
25668;DHT22;18003;-33.830;151.202;2023-02-28T00:28:14;23.40;99.90
25668;DHT22;18003;-33.830;151.202;2023-02-28T00:30:44;23.50;99.90
25668;DHT22;18003;-33.830;151.202;2023-02-28T00:33:14;23.50;99.90
25668;DHT22;18003;-33.830;151.202;2023-02-28T00:35:45;23.40;99.90
25668;DHT22;18003;-33.830;151.202;2023-02-28T00:38:15;23.50;99.90
25668;DHT22;18003;-33.830;151.202;2023-02-28T00:40:45;23.40;99.90
25668;DHT22;18003;-33.830;151.202;2023-02-28T00:43:15;23.50;99.90
25668;DHT22;18003;-33.830;151.202;2023-02-28T00:45:45;23.50;99.90
25668;DHT22;18003;-33.830;151.202;2023-02-28T00:48:15;23.40;99.90
25668;DHT22;18003;-33.830;151.202;2023-02-28T00:50:47;23.50;99.90
25668;DHT22;18003;-33.830;151.202;2023-02-28T00:53:16;23.40;99.90
25668;DHT22;18003;-33.830;151.202;2023-02-28T00:55:46;23.50;99.90
25668;DHT22;18003;-33.830;151.202;2023-02-28T00:58:16;23.50;99.90
25668;DHT22;18003;-33.830;151.202;2023-02-28T01:00:46;23.50;99.90
25668;DHT22;18003;-33.830;151.202;2023-02-28T01:03:20;23.50;99.90
25668;DHT22;18003;-33.830;151.202;2023-02-28T01:05:51;23.50;99.90
25668;DHT22;18003;-33.830;151.202;2023-02-28T01:08:22;23.50;99.90
25668;DHT22;18003;-33.830;151.202;2023-02-28T01:10:52;23.50;99.90
25668;DHT22;18003;-33.830;151.202;2023-02-28T01:13:22;23.50;99.90
25668;DHT22;18003;-33.830;151.202;2023-02-28T01:15:55;23.60;99.90
25668;DHT22;18003;-33.830;151.202;2023-02-28T01:18:25;23.60;99.90
25668;DHT22;18003;-33.830;151.202;2023-02-28T01:20:55;23.60;99.90
25668;DHT22;18003;-33.830;151.202;2023-02-28T01:23:25;23.60;99.90
25668;DHT22;18003;-33.830;151.202;2023-02-28T01:25:55;23.60;99.90
25668;DHT22;18003;-33.830;151.202;2023-02-28T01:28:25;23.60;99.90
25668;DHT22;18003;-33.830;151.202;2023-02-28T01:30:55;23.60;99.90
25668;DHT22;18003;-33.830;151.202;2023-02-28T01:33:25;23.60;99.90
25668;DHT22;18003;-33.830;151.202;2023-02-28T01:36:06;23.60;99.90
25668;DHT22;18003;-33.830;151.202;2023-02-28T01:38:37;23.60;99.90
25668;DHT22;18003;-33.830;151.202;2023-02-28T01:41:07;23.60;99.90
25668;DHT22;18003;-33.830;151.202;2023-02-28T01:46:18;23.60;99.90
25668;DHT22;18003;-33.830;151.202;2023-02-28T01:48:58;23.60;99.90
25668;DHT22;18003;-33.830;151.202;2023-02-28T01:51:31;23.70;99.90
25668;DHT22;18003;-33.830;151.202;2023-02-28T01:54:11;23.60;99.90
25668;DHT22;18003;-33.830;151.202;2023-02-28T01:56:37;23.70;99.90
25668;DHT22;18003;-33.830;151.202;2023-02-28T01:59:07;23.70;99.90
25668;DHT22;18003;-33.830;151.202;2023-02-28T02:01:37;23.70;99.90
25668;DHT22;18003;-33.830;151.202;2023-02-28T02:04:07;23.70;99.90
25668;DHT22;18003;-33.830;151.202;2023-02-28T02:06:42;23.70;99.90
25668;DHT22;18003;-33.830;151.202;2023-02-28T02:09:13;23.70;99.90
25668;DHT22;18003;-33.830;151.202;2023-02-28T02:11:43;23.70;99.90
25668;DHT22;18003;-33.830;151.202;2023-02-28T02:14:20;23.70;99.90
25668;DHT22;18003;-33.830;151.202;2023-02-28T02:17:03;23.70;99.90
25668;DHT22;18003;-33.830;151.202;2023-02-28T02:25:30;23.70;99.90
25668;DHT22;18003;-33.830;151.202;2023-02-28T02:36:44;23.70;99.90
25668;DHT22;18003;-33.830;151.202;2023-02-28T02:39:23;23.70;99.90
25668;DHT22;18003;-33.830;151.202;2023-02-28T02:41:54;23.70;99.90
25668;DHT22;18003;-33.830;151.202;2023-02-28T02:44:28;23.80;99.90
25668;DHT22;18003;-33.830;151.202;2023-02-28T02:47:02;23.80;99.90
25668;DHT22;18003;-33.830;151.202;2023-02-28T02:49:32;23.80;99.90
25668;DHT22;18003;-33.830;151.202;2023-02-28T02:52:04;23.80;99.90
25668;DHT22;18003;-33.830;151.202;2023-02-28T02:54:36;23.80;99.90
25668;DHT22;18003;-33.830;151.202;2023-02-28T02:57:10;23.80;99.90
25668;DHT22;18003;-33.830;151.202;2023-02-28T02:59:42;23.80;99.90
25668;DHT22;18003;-33.830;151.202;2023-02-28T03:02:13;23.80;99.90
25668;DHT22;18003;-33.830;151.202;2023-02-28T03:04:58;23.70;99.90
25668;DHT22;18003;-33.830;151.202;2023-02-28T03:07:29;23.80;99.90
25668;DHT22;18003;-33.830;151.202;2023-02-28T03:09:59;23.80;99.90
25668;DHT22;18003;-33.830;151.202;2023-02-28T03:12:38;23.70;99.90
25668;DHT22;18003;-33.830;151.202;2023-02-28T03:15:17;23.80;99.90
25668;DHT22;18003;-33.830;151.202;2023-02-28T03:17:58;23.80;99.90
25668;DHT22;18003;-33.830;151.202;2023-02-28T03:20:38;23.80;99.90
25668;DHT22;18003;-33.830;151.202;2023-02-28T03:25:52;23.80;99.90
25668;DHT22;18003;-33.830;151.202;2023-02-28T03:28:33;23.80;99.90
25668;DHT22;18003;-33.830;151.202;2023-02-28T03:31:06;23.90;99.90
25668;DHT22;18003;-33.830;151.202;2023-02-28T03:33:38;23.80;99.90
25668;DHT22;18003;-33.830;151.202;2023-02-28T03:36:13;23.80;99.90
25668;DHT22;18003;-33.830;151.202;2023-02-28T03:39:00;23.80;99.90
25668;DHT22;18003;-33.830;151.202;2023-02-28T03:42:13;23.90;99.90
25668;DHT22;18003;-33.830;151.202;2023-02-28T03:44:10;23.90;99.90
25668;DHT22;18003;-33.830;151.202;2023-02-28T03:46:46;23.80;99.90
25668;DHT22;18003;-33.830;151.202;2023-02-28T03:49:19;23.90;99.90
25668;DHT22;18003;-33.830;151.202;2023-02-28T03:51:50;24.30;99.90
25668;DHT22;18003;-33.830;151.202;2023-02-28T03:54:23;24.50;99.90
25668;DHT22;18003;-33.830;151.202;2023-02-28T03:56:59;24.60;99.90
25668;DHT22;18003;-33.830;151.202;2023-02-28T03:59:44;24.50;99.90
25668;DHT22;18003;-33.830;151.202;2023-02-28T04:02:10;24.50;99.90
25668;DHT22;18003;-33.830;151.202;2023-02-28T04:04:40;24.80;99.90
25668;DHT22;18003;-33.830;151.202;2023-02-28T04:07:12;25.10;99.90
25668;DHT22;18003;-33.830;151.202;2023-02-28T04:09:42;25.20;99.90
25668;DHT22;18003;-33.830;151.202;2023-02-28T04:12:12;25.00;99.90
25668;DHT22;18003;-33.830;151.202;2023-02-28T04:14:42;24.90;99.90
25668;DHT22;18003;-33.830;151.202;2023-02-28T04:17:12;25.10;99.90
25668;DHT22;18003;-33.830;151.202;2023-02-28T04:19:42;25.30;99.90
25668;DHT22;18003;-33.830;151.202;2023-02-28T04:22:12;25.40;99.90
25668;DHT22;18003;-33.830;151.202;2023-02-28T04:24:43;25.10;99.90
25668;DHT22;18003;-33.830;151.202;2023-02-28T04:27:13;25.10;99.90
25668;DHT22;18003;-33.830;151.202;2023-02-28T04:29:43;25.30;99.90
25668;DHT22;18003;-33.830;151.202;2023-02-28T04:32:13;25.40;99.90
25668;DHT22;18003;-33.830;151.202;2023-02-28T04:34:43;25.40;99.90
25668;DHT22;18003;-33.830;151.202;2023-02-28T04:37:14;25.20;99.90
25668;DHT22;18003;-33.830;151.202;2023-02-28T04:39:44;25.30;99.90
25668;DHT22;18003;-33.830;151.202;2023-02-28T04:42:14;25.50;99.90
25668;DHT22;18003;-33.830;151.202;2023-02-28T04:44:44;25.50;99.90
25668;DHT22;18003;-33.830;151.202;2023-02-28T04:47:15;25.40;99.90
25668;DHT22;18003;-33.830;151.202;2023-02-28T04:49:45;25.30;99.90
25668;DHT22;18003;-33.830;151.202;2023-02-28T04:52:15;25.30;99.90
25668;DHT22;18003;-33.830;151.202;2023-02-28T04:54:45;25.70;99.90
25668;DHT22;18003;-33.830;151.202;2023-02-28T04:57:15;25.70;99.90
25668;DHT22;18003;-33.830;151.202;2023-02-28T04:59:45;25.60;99.90
25668;DHT22;18003;-33.830;151.202;2023-02-28T05:02:16;25.40;99.90
25668;DHT22;18003;-33.830;151.202;2023-02-28T05:04:46;25.40;99.90
25668;DHT22;18003;-33.830;151.202;2023-02-28T05:07:16;25.60;99.90
25668;DHT22;18003;-33.830;151.202;2023-02-28T05:09:46;25.70;99.90
25668;DHT22;18003;-33.830;151.202;2023-02-28T05:12:16;25.40;99.90
25668;DHT22;18003;-33.830;151.202;2023-02-28T05:14:46;25.30;99.90
25668;DHT22;18003;-33.830;151.202;2023-02-28T05:17:16;25.40;99.90
25668;DHT22;18003;-33.830;151.202;2023-02-28T05:19:46;25.60;99.90
25668;DHT22;18003;-33.830;151.202;2023-02-28T05:22:17;25.70;99.90
25668;DHT22;18003;-33.830;151.202;2023-02-28T05:24:47;25.50;99.90
25668;DHT22;18003;-33.830;151.202;2023-02-28T05:27:17;25.40;99.90
25668;DHT22;18003;-33.830;151.202;2023-02-28T05:29:47;25.60;99.90
25668;DHT22;18003;-33.830;151.202;2023-02-28T05:32:17;25.70;99.90
25668;DHT22;18003;-33.830;151.202;2023-02-28T05:34:47;25.80;99.90
25668;DHT22;18003;-33.830;151.202;2023-02-28T05:37:17;25.50;99.90
25668;DHT22;18003;-33.830;151.202;2023-02-28T05:39:47;25.50;99.90
25668;DHT22;18003;-33.830;151.202;2023-02-28T05:42:17;25.70;99.90
25668;DHT22;18003;-33.830;151.202;2023-02-28T05:44:48;25.80;99.90
25668;DHT22;18003;-33.830;151.202;2023-02-28T05:47:18;25.70;99.90
25668;DHT22;18003;-33.830;151.202;2023-02-28T05:49:48;25.50;99.90
25668;DHT22;18003;-33.830;151.202;2023-02-28T05:52:18;25.60;99.90
25668;DHT22;18003;-33.830;151.202;2023-02-28T05:54:49;25.80;99.90
25668;DHT22;18003;-33.830;151.202;2023-02-28T05:57:19;25.90;99.90
25668;DHT22;18003;-33.830;151.202;2023-02-28T05:59:49;25.90;99.90
25668;DHT22;18003;-33.830;151.202;2023-02-28T06:02:19;25.60;99.90
25668;DHT22;18003;-33.830;151.202;2023-02-28T06:04:49;25.70;99.90
25668;DHT22;18003;-33.830;151.202;2023-02-28T06:07:18;25.90;99.90
25668;DHT22;18003;-33.830;151.202;2023-02-28T06:09:50;26.10;99.90
25668;DHT22;18003;-33.830;151.202;2023-02-28T06:12:19;26.00;99.90
25668;DHT22;18003;-33.830;151.202;2023-02-28T06:14:49;25.80;99.90
25668;DHT22;18003;-33.830;151.202;2023-02-28T06:17:20;25.90;99.90
25668;DHT22;18003;-33.830;151.202;2023-02-28T06:19:50;26.10;99.90
25668;DHT22;18003;-33.830;151.202;2023-02-28T06:22:20;26.10;99.90
25668;DHT22;18003;-33.830;151.202;2023-02-28T06:24:50;26.00;99.90
25668;DHT22;18003;-33.830;151.202;2023-02-28T06:27:20;25.80;99.90
25668;DHT22;18003;-33.830;151.202;2023-02-28T06:29:53;26.00;99.90
25668;DHT22;18003;-33.830;151.202;2023-02-28T06:32:23;26.20;99.90
25668;DHT22;18003;-33.830;151.202;2023-02-28T06:34:53;26.20;99.90
25668;DHT22;18003;-33.830;151.202;2023-02-28T06:37:25;26.10;99.90
25668;DHT22;18003;-33.830;151.202;2023-02-28T06:39:55;25.90;99.90
25668;DHT22;18003;-33.830;151.202;2023-02-28T06:42:25;26.10;99.90
25668;DHT22;18003;-33.830;151.202;2023-02-28T06:44:56;26.30;99.90
25668;DHT22;18003;-33.830;151.202;2023-02-28T06:47:28;26.40;99.90
25668;DHT22;18003;-33.830;151.202;2023-02-28T06:49:57;26.20;99.90
25668;DHT22;18003;-33.830;151.202;2023-02-28T06:52:29;26.00;99.90
25668;DHT22;18003;-33.830;151.202;2023-02-28T06:54:59;26.20;99.90
25668;DHT22;18003;-33.830;151.202;2023-02-28T06:57:30;26.30;99.90
25668;DHT22;18003;-33.830;151.202;2023-02-28T07:00:01;26.40;99.90
25668;DHT22;18003;-33.830;151.202;2023-02-28T07:02:32;26.10;99.90
25668;DHT22;18003;-33.830;151.202;2023-02-28T07:05:02;26.00;99.90
25668;DHT22;18003;-33.830;151.202;2023-02-28T07:07:32;26.10;99.90
25668;DHT22;18003;-33.830;151.202;2023-02-28T07:10:03;26.30;99.90
25668;DHT22;18003;-33.830;151.202;2023-02-28T07:12:33;26.40;99.90
25668;DHT22;18003;-33.830;151.202;2023-02-28T07:15:04;26.10;99.90
25668;DHT22;18003;-33.830;151.202;2023-02-28T07:17:34;26.00;99.90
25668;DHT22;18003;-33.830;151.202;2023-02-28T07:20:05;26.10;99.90
25668;DHT22;18003;-33.830;151.202;2023-02-28T07:22:35;26.10;99.90
25668;DHT22;18003;-33.830;151.202;2023-02-28T07:25:05;26.20;99.90
25668;DHT22;18003;-33.830;151.202;2023-02-28T07:27:35;26.00;99.90
25668;DHT22;18003;-33.830;151.202;2023-02-28T07:30:06;26.00;99.90
25668;DHT22;18003;-33.830;151.202;2023-02-28T07:32:36;26.20;99.90
25668;DHT22;18003;-33.830;151.202;2023-02-28T07:35:07;26.20;99.90
25668;DHT22;18003;-33.830;151.202;2023-02-28T07:37:37;26.20;99.90
25668;DHT22;18003;-33.830;151.202;2023-02-28T07:40:09;25.90;99.90
25668;DHT22;18003;-33.830;151.202;2023-02-28T07:42:43;26.10;99.90
25668;DHT22;18003;-33.830;151.202;2023-02-28T07:45:13;26.30;99.90
25668;DHT22;18003;-33.830;151.202;2023-02-28T07:47:43;26.20;99.90
25668;DHT22;18003;-33.830;151.202;2023-02-28T07:50:15;26.20;99.90
25668;DHT22;18003;-33.830;151.202;2023-02-28T07:52:45;25.90;99.90
25668;DHT22;18003;-33.830;151.202;2023-02-28T07:55:15;26.10;99.90
25668;DHT22;18003;-33.830;151.202;2023-02-28T07:57:46;26.20;99.90
25668;DHT22;18003;-33.830;151.202;2023-02-28T08:00:16;26.30;99.90
25668;DHT22;18003;-33.830;151.202;2023-02-28T08:02:46;26.10;99.90
25668;DHT22;18003;-33.830;151.202;2023-02-28T08:05:16;25.90;99.90
25668;DHT22;18003;-33.830;151.202;2023-02-28T08:07:48;26.10;99.90
25668;DHT22;18003;-33.830;151.202;2023-02-28T08:10:16;26.30;99.90
25668;DHT22;18003;-33.830;151.202;2023-02-28T08:12:47;26.30;99.90
25668;DHT22;18003;-33.830;151.202;2023-02-28T08:15:17;26.10;99.90
25668;DHT22;18003;-33.830;151.202;2023-02-28T08:17:47;25.90;99.90
25668;DHT22;18003;-33.830;151.202;2023-02-28T08:20:17;25.90;99.90
25668;DHT22;18003;-33.830;151.202;2023-02-28T08:22:47;26.00;99.90
25668;DHT22;18003;-33.830;151.202;2023-02-28T08:25:18;26.10;99.90
25668;DHT22;18003;-33.830;151.202;2023-02-28T08:27:48;25.90;99.90
25668;DHT22;18003;-33.830;151.202;2023-02-28T08:30:19;25.80;99.90
25668;DHT22;18003;-33.830;151.202;2023-02-28T08:32:49;25.90;99.90
25668;DHT22;18003;-33.830;151.202;2023-02-28T08:35:19;26.00;99.90
25668;DHT22;18003;-33.830;151.202;2023-02-28T08:37:49;26.00;99.90
25668;DHT22;18003;-33.830;151.202;2023-02-28T08:40:20;25.90;99.90
25668;DHT22;18003;-33.830;151.202;2023-02-28T08:42:50;25.80;99.90
25668;DHT22;18003;-33.830;151.202;2023-02-28T08:45:20;25.90;99.90
25668;DHT22;18003;-33.830;151.202;2023-02-28T08:47:50;26.00;99.90
25668;DHT22;18003;-33.830;151.202;2023-02-28T08:50:21;26.00;99.90
25668;DHT22;18003;-33.830;151.202;2023-02-28T08:52:52;25.80;99.90
25668;DHT22;18003;-33.830;151.202;2023-02-28T08:55:21;25.70;99.90
25668;DHT22;18003;-33.830;151.202;2023-02-28T08:57:51;25.90;99.90
25668;DHT22;18003;-33.830;151.202;2023-02-28T09:00:23;26.00;99.90
25668;DHT22;18003;-33.830;151.202;2023-02-28T09:02:53;26.00;99.90
25668;DHT22;18003;-33.830;151.202;2023-02-28T09:05:23;25.70;99.90
25668;DHT22;18003;-33.830;151.202;2023-02-28T09:07:53;25.80;99.90
25668;DHT22;18003;-33.830;151.202;2023-02-28T09:10:23;25.90;99.90
25668;DHT22;18003;-33.830;151.202;2023-02-28T09:12:54;25.90;99.90
25668;DHT22;18003;-33.830;151.202;2023-02-28T09:15:24;25.90;99.90
25668;DHT22;18003;-33.830;151.202;2023-02-28T09:17:54;25.70;99.90
25668;DHT22;18003;-33.830;151.202;2023-02-28T09:20:24;25.70;99.90
25668;DHT22;18003;-33.830;151.202;2023-02-28T09:22:55;25.80;99.90
25668;DHT22;18003;-33.830;151.202;2023-02-28T09:25:25;25.90;99.90
25668;DHT22;18003;-33.830;151.202;2023-02-28T09:27:55;25.80;99.90
25668;DHT22;18003;-33.830;151.202;2023-02-28T09:30:25;25.60;99.90
25668;DHT22;18003;-33.830;151.202;2023-02-28T09:32:55;25.80;99.90
25668;DHT22;18003;-33.830;151.202;2023-02-28T09:35:26;26.00;99.90
25668;DHT22;18003;-33.830;151.202;2023-02-28T09:37:56;26.10;99.90
25668;DHT22;18003;-33.830;151.202;2023-02-28T09:40:27;26.10;99.90
25668;DHT22;18003;-33.830;151.202;2023-02-28T09:42:57;25.90;99.90
25668;DHT22;18003;-33.830;151.202;2023-02-28T09:45:39;26.10;99.90
25668;DHT22;18003;-33.830;151.202;2023-02-28T09:48:25;26.20;99.90
25668;DHT22;18003;-33.830;151.202;2023-02-28T09:50:51;26.30;99.90
25668;DHT22;18003;-33.830;151.202;2023-02-28T09:53:26;26.10;99.90
25668;DHT22;18003;-33.830;151.202;2023-02-28T09:55:59;26.10;99.90
25668;DHT22;18003;-33.830;151.202;2023-02-28T10:04:28;26.10;99.90
25668;DHT22;18003;-33.830;151.202;2023-02-28T10:06:50;25.90;99.90
25668;DHT22;18003;-33.830;151.202;2023-02-28T10:09:25;25.70;99.90
25668;DHT22;18003;-33.830;151.202;2023-02-28T10:11:57;25.70;99.90
25668;DHT22;18003;-33.830;151.202;2023-02-28T10:14:28;25.70;99.90
25668;DHT22;18003;-33.830;151.202;2023-02-28T10:17:19;25.60;99.90
25668;DHT22;18003;-33.830;151.202;2023-02-28T10:20:00;25.60;99.90
25668;DHT22;18003;-33.830;151.202;2023-02-28T10:22:35;25.60;99.90
25668;DHT22;18003;-33.830;151.202;2023-02-28T10:25:23;25.50;99.90
25668;DHT22;18003;-33.830;151.202;2023-02-28T10:27:53;25.50;99.90
25668;DHT22;18003;-33.830;151.202;2023-02-28T10:30:23;25.50;99.90
25668;DHT22;18003;-33.830;151.202;2023-02-28T10:32:54;25.50;99.90
25668;DHT22;18003;-33.830;151.202;2023-02-28T10:35:25;25.50;99.90
25668;DHT22;18003;-33.830;151.202;2023-02-28T10:37:55;25.40;99.90
25668;DHT22;18003;-33.830;151.202;2023-02-28T10:40:27;25.40;99.90
25668;DHT22;18003;-33.830;151.202;2023-02-28T10:43:02;25.40;99.90
25668;DHT22;18003;-33.830;151.202;2023-02-28T10:45:33;25.40;99.90
25668;DHT22;18003;-33.830;151.202;2023-02-28T10:56:00;25.30;99.90
25668;DHT22;18003;-33.830;151.202;2023-02-28T11:04:03;25.20;99.90
25668;DHT22;18003;-33.830;151.202;2023-02-28T11:06:34;25.20;99.90
25668;DHT22;18003;-33.830;151.202;2023-02-28T11:09:17;25.20;99.90
25668;DHT22;18003;-33.830;151.202;2023-02-28T11:11:46;25.20;99.90
25668;DHT22;18003;-33.830;151.202;2023-02-28T11:14:24;25.20;99.90
25668;DHT22;18003;-33.830;151.202;2023-02-28T11:16:49;25.20;99.90
25668;DHT22;18003;-33.830;151.202;2023-02-28T11:19:34;25.20;99.90
25668;DHT22;18003;-33.830;151.202;2023-02-28T11:22:05;25.20;99.90
25668;DHT22;18003;-33.830;151.202;2023-02-28T11:24:43;25.10;99.90
25668;DHT22;18003;-33.830;151.202;2023-02-28T11:30:03;25.10;99.90
25668;DHT22;18003;-33.830;151.202;2023-02-28T11:32:33;25.10;99.90
25668;DHT22;18003;-33.830;151.202;2023-02-28T11:37:47;25.10;99.90
25668;DHT22;18003;-33.830;151.202;2023-02-28T11:40:19;25.10;99.90
25668;DHT22;18003;-33.830;151.202;2023-02-28T11:43:16;25.10;99.90
25668;DHT22;18003;-33.830;151.202;2023-02-28T11:45:53;25.10;99.90
25668;DHT22;18003;-33.830;151.202;2023-02-28T11:51:03;25.10;99.90
25668;DHT22;18003;-33.830;151.202;2023-02-28T11:56:41;25.00;99.90
25668;DHT22;18003;-33.830;151.202;2023-02-28T12:02:24;25.00;99.90
25668;DHT22;18003;-33.830;151.202;2023-02-28T12:08:07;25.00;99.90
25668;DHT22;18003;-33.830;151.202;2023-02-28T12:13:43;24.90;99.90
25668;DHT22;18003;-33.830;151.202;2023-02-28T12:21:53;24.90;99.90
25668;DHT22;18003;-33.830;151.202;2023-02-28T12:24:29;24.90;99.90
25668;DHT22;18003;-33.830;151.202;2023-02-28T12:26:59;24.90;99.90
25668;DHT22;18003;-33.830;151.202;2023-02-28T12:29:52;24.90;99.90
25668;DHT22;18003;-33.830;151.202;2023-02-28T12:32:39;24.90;99.90
25668;DHT22;18003;-33.830;151.202;2023-02-28T12:38:02;24.90;99.90
25668;DHT22;18003;-33.830;151.202;2023-02-28T12:40:42;24.90;99.90
25668;DHT22;18003;-33.830;151.202;2023-02-28T12:43:12;24.90;99.90
25668;DHT22;18003;-33.830;151.202;2023-02-28T12:45:56;24.80;99.90
25668;DHT22;18003;-33.830;151.202;2023-02-28T12:48:27;24.80;99.90
25668;DHT22;18003;-33.830;151.202;2023-02-28T12:50:56;24.80;99.90
25668;DHT22;18003;-33.830;151.202;2023-02-28T12:53:35;24.80;99.90
25668;DHT22;18003;-33.830;151.202;2023-02-28T12:58:49;24.80;99.90
25668;DHT22;18003;-33.830;151.202;2023-02-28T13:04:32;24.80;99.90
25668;DHT22;18003;-33.830;151.202;2023-02-28T13:10:02;24.70;99.90
25668;DHT22;18003;-33.830;151.202;2023-02-28T13:12:32;24.70;99.90
25668;DHT22;18003;-33.830;151.202;2023-02-28T13:15:05;24.70;99.90
25668;DHT22;18003;-33.830;151.202;2023-02-28T13:17:36;24.70;99.90
25668;DHT22;18003;-33.830;151.202;2023-02-28T13:20:13;24.70;99.90
25668;DHT22;18003;-33.830;151.202;2023-02-28T13:22:44;24.70;99.90
25668;DHT22;18003;-33.830;151.202;2023-02-28T13:28:10;24.70;99.90
25668;DHT22;18003;-33.830;151.202;2023-02-28T13:33:35;24.70;99.90
25668;DHT22;18003;-33.830;151.202;2023-02-28T13:38:57;24.70;99.90
25668;DHT22;18003;-33.830;151.202;2023-02-28T13:49:26;24.70;99.90
25668;DHT22;18003;-33.830;151.202;2023-02-28T13:52:16;24.70;99.90
25668;DHT22;18003;-33.830;151.202;2023-02-28T14:03:09;24.70;99.90
25668;DHT22;18003;-33.830;151.202;2023-02-28T14:05:37;24.70;99.90
25668;DHT22;18003;-33.830;151.202;2023-02-28T14:08:13;24.70;99.90
25668;DHT22;18003;-33.830;151.202;2023-02-28T14:13:42;24.60;99.90
25668;DHT22;18003;-33.830;151.202;2023-02-28T14:16:14;24.60;99.90
25668;DHT22;18003;-33.830;151.202;2023-02-28T14:19:02;24.60;99.90
25668;DHT22;18003;-33.830;151.202;2023-02-28T14:21:35;24.60;99.90
25668;DHT22;18003;-33.830;151.202;2023-02-28T14:27:00;24.60;99.90
25668;DHT22;18003;-33.830;151.202;2023-02-28T14:29:59;24.60;99.90
25668;DHT22;18003;-33.830;151.202;2023-02-28T14:37:50;24.60;99.90
25668;DHT22;18003;-33.830;151.202;2023-02-28T14:40:30;24.60;99.90
25668;DHT22;18003;-33.830;151.202;2023-02-28T14:43:03;24.60;99.90
25668;DHT22;18003;-33.830;151.202;2023-02-28T14:45:35;24.60;99.90
25668;DHT22;18003;-33.830;151.202;2023-02-28T14:48:08;24.60;99.90
25668;DHT22;18003;-33.830;151.202;2023-02-28T14:50:37;24.60;99.90
25668;DHT22;18003;-33.830;151.202;2023-02-28T14:53:11;24.50;99.90
25668;DHT22;18003;-33.830;151.202;2023-02-28T14:55:43;24.50;99.90
25668;DHT22;18003;-33.830;151.202;2023-02-28T14:58:50;24.50;99.90
25668;DHT22;18003;-33.830;151.202;2023-02-28T15:00:50;24.50;99.90
25668;DHT22;18003;-33.830;151.202;2023-02-28T15:03:33;24.50;99.90
25668;DHT22;18003;-33.830;151.202;2023-02-28T15:06:04;24.50;99.90
25668;DHT22;18003;-33.830;151.202;2023-02-28T15:08:35;24.50;99.90
25668;DHT22;18003;-33.830;151.202;2023-02-28T15:11:12;24.50;99.90
25668;DHT22;18003;-33.830;151.202;2023-02-28T15:13:44;24.50;99.90
25668;DHT22;18003;-33.830;151.202;2023-02-28T15:19:00;24.50;99.90
25668;DHT22;18003;-33.830;151.202;2023-02-28T15:21:36;24.50;99.90
25668;DHT22;18003;-33.830;151.202;2023-02-28T15:24:08;24.50;99.90
25668;DHT22;18003;-33.830;151.202;2023-02-28T15:26:46;24.50;99.90
25668;DHT22;18003;-33.830;151.202;2023-02-28T15:29:20;24.50;99.90
25668;DHT22;18003;-33.830;151.202;2023-02-28T15:31:55;24.50;99.90
25668;DHT22;18003;-33.830;151.202;2023-02-28T15:37:01;24.50;99.90
25668;DHT22;18003;-33.830;151.202;2023-02-28T15:39:31;24.40;99.90
25668;DHT22;18003;-33.830;151.202;2023-02-28T15:42:22;24.40;99.90
25668;DHT22;18003;-33.830;151.202;2023-02-28T15:44:48;24.40;99.90
25668;DHT22;18003;-33.830;151.202;2023-02-28T15:47:20;24.40;99.90
25668;DHT22;18003;-33.830;151.202;2023-02-28T15:52:34;24.40;99.90
25668;DHT22;18003;-33.830;151.202;2023-02-28T15:55:26;24.40;99.90
25668;DHT22;18003;-33.830;151.202;2023-02-28T15:57:56;24.40;99.90
25668;DHT22;18003;-33.830;151.202;2023-02-28T16:00:27;24.40;99.90
25668;DHT22;18003;-33.830;151.202;2023-02-28T16:02:58;24.40;99.90
25668;DHT22;18003;-33.830;151.202;2023-02-28T16:05:30;24.40;99.90
25668;DHT22;18003;-33.830;151.202;2023-02-28T16:08:06;24.40;99.90
25668;DHT22;18003;-33.830;151.202;2023-02-28T16:10:32;24.40;99.90
25668;DHT22;18003;-33.830;151.202;2023-02-28T16:13:03;24.40;99.90
25668;DHT22;18003;-33.830;151.202;2023-02-28T16:15:35;24.40;99.90
25668;DHT22;18003;-33.830;151.202;2023-02-28T16:18:07;24.40;99.90
25668;DHT22;18003;-33.830;151.202;2023-02-28T16:20:36;24.30;99.90
25668;DHT22;18003;-33.830;151.202;2023-02-28T16:23:06;24.40;99.90
25668;DHT22;18003;-33.830;151.202;2023-02-28T16:25:38;24.30;99.90
25668;DHT22;18003;-33.830;151.202;2023-02-28T16:28:17;24.30;99.90
25668;DHT22;18003;-33.830;151.202;2023-02-28T16:30:46;24.40;99.90
25668;DHT22;18003;-33.830;151.202;2023-02-28T16:33:16;24.40;99.90
25668;DHT22;18003;-33.830;151.202;2023-02-28T16:35:46;24.30;99.90
25668;DHT22;18003;-33.830;151.202;2023-02-28T16:38:16;24.30;99.90
25668;DHT22;18003;-33.830;151.202;2023-02-28T16:40:46;24.40;99.90
25668;DHT22;18003;-33.830;151.202;2023-02-28T16:43:18;24.40;99.90
25668;DHT22;18003;-33.830;151.202;2023-02-28T16:45:49;24.30;99.90
25668;DHT22;18003;-33.830;151.202;2023-02-28T16:48:20;24.30;99.90
25668;DHT22;18003;-33.830;151.202;2023-02-28T16:50:50;24.30;99.90
25668;DHT22;18003;-33.830;151.202;2023-02-28T16:53:20;24.30;99.90
25668;DHT22;18003;-33.830;151.202;2023-02-28T16:55:50;24.30;99.90
25668;DHT22;18003;-33.830;151.202;2023-02-28T16:58:20;24.30;99.90
25668;DHT22;18003;-33.830;151.202;2023-02-28T17:00:51;24.30;99.90
25668;DHT22;18003;-33.830;151.202;2023-02-28T17:03:25;24.30;99.90
25668;DHT22;18003;-33.830;151.202;2023-02-28T17:05:56;24.30;99.90
25668;DHT22;18003;-33.830;151.202;2023-02-28T17:08:27;24.30;99.90
25668;DHT22;18003;-33.830;151.202;2023-02-28T17:10:57;24.30;99.90
25668;DHT22;18003;-33.830;151.202;2023-02-28T17:13:27;24.30;99.90
25668;DHT22;18003;-33.830;151.202;2023-02-28T17:15:57;24.30;99.90
25668;DHT22;18003;-33.830;151.202;2023-02-28T17:18:27;24.30;99.90